チェンナイ の空港の天気 - METARとTAF

チェンナイ国際空港 ( VOMM / MAA ) - インド チェンナイ
飛行場実況気象(Metar)
観測時間11/14 22:30 IST (11/14 17:00 UTC)
風向・風速北東 3m/s
視程5000m
天気現象煙霧
少しの雲 雲底高度 610m
気温29℃
湿度70%
気圧1010hPa
METARVOMM 141700Z 04006KT 5000 HZ FEW020 29/23 Q1010 NOSIG
過去の天気等 Google飛行場航空写真 Wunderground天気予報

過去48時間のMETAR

飛行場予報(TAF)
発表時間: 11/14 16:30 IST (11/14 11:00 UTC)
予報対象時間: 14日17時 IST ~ 15日23時 IST
風向・風速北北東 5m/s 瞬間風速 10m/s
視程5000m
天気現象煙霧
全天の4割程度の雲 雲底高度 550m
全天の8割程度の雲 雲底高度 3050m
14日20時 IST ~ 14日21時 IST に徐々に
視程4000m
天気現象もや
15日2時 IST ~ 15日5時 IST に一時的に
視程3000m
15日8時 IST ~ 15日9時 IST に徐々に
風向・風速北北東 8m/s 瞬間風速 13m/s
15日8時 IST ~ 15日14時 IST に一時的に
15日14時 IST ~ 15日15時 IST に徐々に
風向・風速北北東 10m/s 瞬間風速 15m/s
15日14時 IST ~ 15日23時 IST に一時的に
TAF VOMM 141100Z 1412/1518 02010G20KT 5000 HZ SCT018 BKN100
BECMG 1415/1416 4000 BR
TEMPO 1421/1424 3000 TSRA/RA SCT015 FEW025CB OVC080
BECMG 1503/1504 03015G25KT
TEMPO 1503/1509 +1000 TSRA/RA SCT010 SCT015 FEW025CB OVC080
BECMG 1509/1510 03020G30KT
TEMPO 1509/1518 +1000 TSRA/RA SCT010 SCT015 FEW025CB OVC080